Time;durP1;ratioP1;P1;durP2;ratioP2;P2;SDS_P1;SDS_P2;PMS_P1;PMS_P2;Temp;Humidity;BMP_temperature;BMP_pressure;BME280_temperature;BME280_humidity;BME280_pressure;Samples;Min_cycle;Max_cycle;Signal;HPM_P1;HPM_P2
2022/02/18 00:01:05;;;;;;;26.42;3.38;;;10.30;99.90;;;;;;4977294;28;20185;-79
2022/02/18 00:03:31;;;;;;;33.53;5.05;;;10.30;99.90;;;;;;4975990;28;20201;-79
2022/02/18 00:05:57;;;;;;;29.30;4.30;;;10.40;99.90;;;;;;4976272;28;20828;-79
2022/02/18 00:08:24;;;;;;;27.48;3.78;;;10.40;99.90;;;;;;4976059;28;20177;-78
2022/02/18 00:10:50;;;;;;;34.33;4.70;;;10.50;99.90;;;;;;4958627;28;20224;-89
2022/02/18 00:13:16;;;;;;;27.05;4.47;;;10.30;99.90;;;;;;4975678;28;20269;-78
2022/02/18 00:15:42;;;;;;;32.97;4.97;;;10.30;99.90;;;;;;4976566;28;20173;-78
2022/02/18 00:18:07;;;;;;;32.70;4.65;;;10.40;99.90;;;;;;4975606;28;20635;-78
2022/02/18 00:20:34;;;;;;;43.25;4.18;;;10.30;99.90;;;;;;4976055;28;20184;-82
2022/02/18 00:23:01;;;;;;;28.48;5.00;;;10.40;99.90;;;;;;4975731;28;20802;-81
2022/02/18 00:25:27;;;;;;;41.90;4.85;;;10.40;99.90;;;;;;4976364;28;20181;-82
2022/02/18 00:27:52;;;;;;;22.23;4.22;;;10.50;99.90;;;;;;4975509;28;20170;-79
2022/02/18 00:30:19;;;;;;;35.47;4.60;;;10.40;99.90;;;;;;4958576;28;20262;-78
2022/02/18 00:32:45;;;;;;;27.10;3.78;;;10.40;99.90;;;;;;4976299;28;20630;-78
2022/02/18 00:35:10;;;;;;;29.27;4.60;;;10.40;99.90;;;;;;4975774;28;20201;-80
2022/02/18 00:37:36;;;;;;;19.25;3.47;;;10.40;99.90;;;;;;4981475;28;20174;-78
2022/02/18 00:40:03;;;;;;;33.72;4.43;;;10.50;99.90;;;;;;4980601;28;20181;-77
2022/02/18 00:42:29;;;;;;;22.15;3.60;;;10.30;99.90;;;;;;4980897;28;20170;-78
2022/02/18 00:44:55;;;;;;;26.08;4.13;;;10.10;99.90;;;;;;4981988;28;20209;-79
2022/02/18 00:47:21;;;;;;;21.20;3.80;;;10.20;99.90;;;;;;4977516;28;20166;-82
2022/02/18 00:49:47;;;;;;;28.25;3.92;;;10.40;99.90;;;;;;4977741;28;20594;-77
2022/02/18 00:52:15;;;;;;;35.20;4.70;;;10.50;99.90;;;;;;4976236;28;20225;-78
2022/02/18 00:54:41;;;;;;;21.35;5.15;;;10.50;99.90;;;;;;4975491;28;20198;-78
2022/02/18 00:57:06;;;;;;;32.28;4.10;;;10.40;99.90;;;;;;4976433;28;20202;-77
2022/02/18 00:59:32;;;;;;;20.33;3.20;;;10.30;99.90;;;;;;4957876;28;20202;-77
2022/02/18 01:01:58;;;;;;;30.33;3.60;;;10.40;99.90;;;;;;4975788;28;20213;-77
2022/02/18 01:04:23;;;;;;;30.50;4.78;;;10.30;99.90;;;;;;4957064;28;20263;-78
2022/02/18 01:06:49;;;;;;;38.60;5.07;;;10.20;99.90;;;;;;4974279;28;20709;-77
2022/02/18 01:09:14;;;;;;;35.83;4.95;;;10.20;99.90;;;;;;4974472;28;20505;-77
2022/02/18 01:11:40;;;;;;;22.85;2.90;;;10.30;99.90;;;;;;4973152;28;20570;-78
2022/02/18 01:14:06;;;;;;;21.40;3.05;;;10.20;99.90;;;;;;4974539;28;20201;-78
2022/02/18 01:16:32;;;;;;;34.53;5.22;;;10.20;99.90;;;;;;4974422;28;20220;-78
2022/02/18 01:18:58;;;;;;;19.20;4.38;;;10.10;99.90;;;;;;4974536;28;20170;-79
2022/02/18 01:21:25;;;;;;;37.45;4.95;;;10.30;99.90;;;;;;4974715;28;20193;-78
2022/02/18 01:23:51;;;;;;;22.10;4.75;;;10.40;99.90;;;;;;4974291;28;20209;-78
2022/02/18 01:26:17;;;;;;;24.35;3.90;;;10.30;99.90;;;;;;4973436;28;20170;-78
2022/02/18 01:28:43;;;;;;;35.08;4.00;;;10.30;99.90;;;;;;4978488;28;20222;-79
2022/02/18 01:31:09;;;;;;;16.17;3.25;;;10.30;99.90;;;;;;4975713;28;20178;-79
2022/02/18 01:33:34;;;;;;;28.30;5.30;;;10.40;99.90;;;;;;4957157;28;20264;-77
2022/02/18 01:36:00;;;;;;;21.88;3.63;;;10.60;99.90;;;;;;4975914;28;20180;-77
2022/02/18 01:38:26;;;;;;;27.20;3.47;;;10.70;99.90;;;;;;4976253;28;20261;-77
2022/02/18 01:40:51;;;;;;;27.73;4.15;;;10.50;99.90;;;;;;4974808;28;20176;-84
2022/02/18 01:43:17;;;;;;;36.97;3.35;;;10.50;99.90;;;;;;4975131;28;20202;-78
2022/02/18 01:45:42;;;;;;;23.83;4.03;;;10.50;99.90;;;;;;4974334;28;20178;-78
2022/02/18 01:48:08;;;;;;;32.75;4.95;;;10.50;99.90;;;;;;4975427;28;20194;-78
2022/02/18 01:50:34;;;;;;;22.77;4.07;;;10.40;99.90;;;;;;4974334;28;20177;-79
2022/02/18 01:53:01;;;;;;;28.02;3.97;;;10.40;99.90;;;;;;4974324;28;20598;-79
2022/02/18 01:55:27;;;;;;;20.50;3.95;;;10.30;99.90;;;;;;4974469;28;20193;-78
2022/02/18 01:57:58;;;;;;;28.38;3.97;;;10.30;99.90;;;;;;4974531;28;20166;-80
2022/02/18 02:00:26;;;;;;;27.20;3.28;;;10.40;99.90;;;;;;4974798;28;20703;-84
2022/02/18 02:02:53;;;;;;;30.42;3.75;;;10.30;99.90;;;;;;4974664;28;20177;-82
2022/02/18 02:05:21;;;;;;;22.17;4.82;;;10.20;99.90;;;;;;4975190;28;20693;-78
2022/02/18 02:07:46;;;;;;;22.70;4.50;;;10.10;99.90;;;;;;4977542;28;20702;-78
2022/02/18 02:10:14;;;;;;;24.80;3.95;;;10.00;99.90;;;;;;4987340;28;20161;-78
2022/02/18 02:12:52;;;;;;;29.08;3.50;;;9.90;99.90;;;;;;4997812;28;20839;-80
2022/02/18 02:15:32;;;;;;;16.50;2.90;;;10.00;99.90;;;;;;4956721;28;20193;-77
2022/02/18 02:18:01;;;;;;;28.08;5.28;;;10.20;99.90;;;;;;4973350;28;20178;-78
2022/02/18 02:20:26;;;;;;;19.50;3.85;;;10.20;99.90;;;;;;4957701;28;20193;-77
2022/02/18 02:22:52;;;;;;;23.30;3.45;;;10.10;99.90;;;;;;4976432;28;20564;-85
2022/02/18 02:25:18;;;;;;;24.77;3.40;;;10.00;99.90;;;;;;4975128;28;20753;-78
2022/02/18 02:27:43;;;;;;;19.67;3.42;;;9.90;99.90;;;;;;4976197;28;20181;-77
2022/02/18 02:30:11;;;;;;;22.95;4.05;;;10.10;99.90;;;;;;4978261;28;20553;-83
2022/02/18 02:32:37;;;;;;;23.10;3.85;;;10.40;99.90;;;;;;4978488;28;20174;-78
2022/02/18 02:35:02;;;;;;;20.35;3.97;;;10.40;99.90;;;;;;4977788;28;20193;-77
2022/02/18 02:37:28;;;;;;;17.98;5.03;;;10.30;99.90;;;;;;4979024;28;20178;-77
2022/02/18 02:39:54;;;;;;;18.77;4.00;;;10.30;99.90;;;;;;4978481;28;20201;-79
2022/02/18 02:42:20;;;;;;;24.17;5.05;;;10.20;99.90;;;;;;4977602;28;20224;-77
2022/02/18 02:44:45;;;;;;;22.55;4.70;;;10.10;99.90;;;;;;4976915;28;20205;-78
2022/02/18 02:47:11;;;;;;;30.98;5.60;;;10.20;99.90;;;;;;4977547;28;20257;-77
2022/02/18 02:49:36;;;;;;;19.30;4.85;;;10.30;99.90;;;;;;4976490;28;20248;-77
2022/02/18 02:52:02;;;;;;;24.88;5.78;;;10.40;99.90;;;;;;4976602;28;20169;-77
2022/02/18 02:54:28;;;;;;;27.75;5.32;;;10.50;99.90;;;;;;4977238;28;20643;-77
2022/02/18 02:56:55;;;;;;;19.23;5.60;;;10.50;99.90;;;;;;4977190;28;20583;-77
2022/02/18 02:59:21;;;;;;;20.67;5.97;;;10.60;99.90;;;;;;4981787;28;20176;-78
2022/02/18 03:01:46;;;;;;;28.25;6.28;;;10.60;99.90;;;;;;4980770;28;20205;-78
2022/02/18 03:04:12;;;;;;;22.58;5.05;;;10.70;99.90;;;;;;4979317;28;20216;-79
2022/02/18 03:06:38;;;;;;;26.67;5.05;;;10.70;99.90;;;;;;4980954;28;20520;-78
2022/02/18 03:09:09;;;;;;;21.65;4.80;;;10.60;99.90;;;;;;4981330;28;20662;-88
2022/02/18 03:11:34;;;;;;;20.17;3.38;;;10.70;99.90;;;;;;4979308;28;20170;-78
2022/02/18 03:14:01;;;;;;;21.75;4.32;;;10.70;99.90;;;;;;4980281;28;20205;-78
2022/02/18 03:16:27;;;;;;;23.38;4.53;;;10.80;99.90;;;;;;4978884;28;20176;-78
2022/02/18 03:18:52;;;;;;;21.13;3.78;;;10.80;99.90;;;;;;4976778;28;20241;-78
2022/02/18 03:21:18;;;;;;;14.38;3.08;;;10.70;99.90;;;;;;4978342;28;20635;-79
2022/02/18 03:23:46;;;;;;;24.77;4.03;;;10.70;99.90;;;;;;4976681;28;20220;-79
2022/02/18 03:26:13;;;;;;;18.55;2.55;;;10.60;99.90;;;;;;4977219;28;20158;-79
2022/02/18 03:28:39;;;;;;;30.05;4.22;;;10.70;99.90;;;;;;4976866;28;20181;-79
2022/02/18 03:31:08;;;;;;;18.42;4.22;;;10.90;99.90;;;;;;4976907;28;20236;-78
2022/02/18 03:33:40;;;;;;;11.82;3.85;;;11.00;99.90;;;;;;4976149;28;20729;-77
2022/02/18 03:36:07;;;;;;;17.02;2.88;;;10.90;99.90;;;;;;4959090;28;20182;-80
2022/02/18 03:38:33;;;;;;;16.38;3.80;;;10.80;99.90;;;;;;4976004;28;20177;-77
2022/02/18 03:40:59;;;;;;;16.23;3.15;;;10.80;99.90;;;;;;4976476;28;20166;-78
2022/02/18 03:43:24;;;;;;;14.90;2.58;;;10.60;99.90;;;;;;4980108;28;20243;-83
2022/02/18 03:45:50;;;;;;;12.95;3.00;;;10.50;99.90;;;;;;4959306;28;20170;-77
2022/02/18 03:48:16;;;;;;;25.27;3.15;;;10.50;99.90;;;;;;4976359;28;20650;-77
2022/02/18 03:50:41;;;;;;;14.68;2.90;;;10.40;99.90;;;;;;4977183;28;20196;-78
2022/02/18 03:53:07;;;;;;;21.40;3.20;;;10.30;99.90;;;;;;4977805;28;20629;-79
2022/02/18 03:55:33;;;;;;;22.65;3.28;;;10.10;99.90;;;;;;4976571;28;20631;-80
2022/02/18 03:57:58;;;;;;;25.00;3.17;;;10.20;99.90;;;;;;4976610;28;20178;-79
2022/02/18 04:00:24;;;;;;;14.80;2.25;;;10.40;99.90;;;;;;4976519;28;20201;-88
2022/02/18 04:02:50;;;;;;;8.30;2.30;;;10.50;99.90;;;;;;4976150;28;20172;-77
2022/02/18 04:05:16;;;;;;;21.33;2.95;;;10.40;99.90;;;;;;4975986;28;20281;-78
2022/02/18 04:07:41;;;;;;;16.98;3.50;;;10.40;99.90;;;;;;4974967;28;20233;-78
2022/02/18 04:10:07;;;;;;;11.68;2.45;;;10.40;99.90;;;;;;4976261;28;20177;-78
2022/02/18 04:12:33;;;;;;;10.18;2.65;;;10.30;99.90;;;;;;4976241;28;20629;-78
2022/02/18 04:14:59;;;;;;;17.20;3.10;;;10.40;99.90;;;;;;4976157;28;20177;-78
2022/02/18 04:17:27;;;;;;;17.15;2.67;;;10.40;99.90;;;;;;4976864;28;20173;-78
2022/02/18 04:19:53;;;;;;;20.25;2.80;;;10.40;99.90;;;;;;4976088;28;20220;-78
2022/02/18 04:22:19;;;;;;;14.40;3.65;;;10.30;99.90;;;;;;4977094;28;20170;-78
2022/02/18 04:24:45;;;;;;;14.48;2.08;;;10.40;99.90;;;;;;4985553;28;20281;-77
2022/02/18 04:27:10;;;;;;;18.17;2.60;;;10.30;99.90;;;;;;4995376;28;20532;-89
2022/02/18 04:29:36;;;;;;;15.70;2.55;;;10.30;99.90;;;;;;4975593;28;20217;-78
2022/02/18 04:32:02;;;;;;;11.82;3.17;;;10.20;99.90;;;;;;4975882;28;20166;-78
2022/02/18 04:34:27;;;;;;;12.00;3.00;;;10.30;99.90;;;;;;4976272;28;20197;-78
2022/02/18 04:36:53;;;;;;;14.60;2.60;;;10.40;99.90;;;;;;4975603;28;20166;-78
2022/02/18 04:39:18;;;;;;;22.50;4.30;;;10.40;99.90;;;;;;4975631;28;20193;-78
2022/02/18 04:41:44;;;;;;;16.08;2.67;;;10.50;99.90;;;;;;4958432;28;20165;-77
2022/02/18 04:44:09;;;;;;;20.73;2.60;;;10.50;99.90;;;;;;4975549;28;20214;-77
2022/02/18 04:46:35;;;;;;;22.42;3.15;;;10.50;99.90;;;;;;4975177;28;20178;-78
2022/02/18 04:49:00;;;;;;;24.20;3.17;;;10.30;99.90;;;;;;4975609;28;20174;-77
2022/02/18 04:51:26;;;;;;;22.45;3.22;;;10.40;99.90;;;;;;4975060;28;20162;-88
2022/02/18 04:53:52;;;;;;;21.55;3.90;;;10.30;99.90;;;;;;4975680;28;20204;-77
2022/02/18 04:56:17;;;;;;;23.52;3.47;;;10.30;99.90;;;;;;4975291;28;20169;-78
2022/02/18 04:58:43;;;;;;;24.92;3.95;;;10.30;99.90;;;;;;4975063;28;20173;-78
2022/02/18 05:01:12;;;;;;;12.65;2.90;;;10.40;99.90;;;;;;4975019;28;20177;-81
2022/02/18 05:03:38;;;;;;;15.93;3.17;;;10.20;99.90;;;;;;4975191;28;20233;-78
2022/02/18 05:06:04;;;;;;;17.45;3.53;;;10.00;99.90;;;;;;4975375;28;20240;-78
2022/02/18 05:08:39;;;;;;;21.40;3.35;;;10.00;99.90;;;;;;4975544;28;20236;-78
2022/02/18 05:11:04;;;;;;;12.95;3.30;;;9.90;99.90;;;;;;4977574;28;20193;-77
2022/02/18 05:13:30;;;;;;;13.95;2.60;;;9.90;99.90;;;;;;4978824;28;20194;-77
2022/02/18 05:15:56;;;;;;;30.48;3.80;;;9.80;99.90;;;;;;4980463;28;20184;-78
2022/02/18 05:18:21;;;;;;;14.27;4.60;;;9.80;99.90;;;;;;4978974;28;20608;-78
2022/02/18 05:20:47;;;;;;;23.98;3.22;;;9.70;99.90;;;;;;4976324;28;20504;-79
2022/02/18 05:23:12;;;;;;;25.13;3.55;;;9.70;99.90;;;;;;4977449;28;20248;-78
2022/02/18 05:25:38;;;;;;;26.27;3.83;;;9.80;99.90;;;;;;4977476;28;20169;-77
2022/02/18 05:28:04;;;;;;;11.73;2.25;;;9.80;99.90;;;;;;4956905;28;20261;-79
2022/02/18 05:30:31;;;;;;;17.35;3.22;;;9.80;99.90;;;;;;4974125;28;20177;-77
2022/02/18 05:32:56;;;;;;;21.33;4.43;;;9.70;99.90;;;;;;4978434;28;20627;-83
2022/02/18 05:35:22;;;;;;;18.38;2.97;;;9.70;99.90;;;;;;4975018;28;20265;-78
2022/02/18 05:37:48;;;;;;;16.27;3.03;;;9.70;99.90;;;;;;4981155;28;20170;-79
2022/02/18 05:40:14;;;;;;;12.98;2.45;;;9.70;99.90;;;;;;4978967;28;20527;-78
2022/02/18 05:42:40;;;;;;;14.15;3.25;;;9.70;99.90;;;;;;4975341;28;20162;-78
2022/02/18 05:45:07;;;;;;;17.95;3.17;;;9.80;99.90;;;;;;4976956;28;20240;-85
2022/02/18 05:47:36;;;;;;;15.60;2.97;;;10.00;99.90;;;;;;4957631;28;20188;-78
2022/02/18 05:50:11;;;;;;;16.50;2.17;;;10.00;99.90;;;;;;4974814;28;20178;-77
2022/02/18 05:52:41;;;;;;;12.38;2.63;;;9.90;99.90;;;;;;4973910;28;20169;-78
2022/02/18 05:55:07;;;;;;;14.82;2.60;;;10.00;99.90;;;;;;4974126;28;20276;-87
2022/02/18 05:57:33;;;;;;;15.35;3.58;;;10.10;99.90;;;;;;4973808;28;20208;-77
2022/02/18 05:59:59;;;;;;;12.13;2.53;;;10.20;99.90;;;;;;4973646;28;20197;-78
2022/02/18 06:02:24;;;;;;;12.13;2.47;;;10.10;99.90;;;;;;4975661;28;20608;-78
2022/02/18 06:04:50;;;;;;;11.75;2.92;;;10.00;99.90;;;;;;4977443;28;20213;-84
2022/02/18 06:07:16;;;;;;;7.10;2.13;;;10.10;99.90;;;;;;4977541;28;20190;-77
2022/02/18 06:09:42;;;;;;;9.60;2.35;;;10.10;99.90;;;;;;4960221;28;20192;-78
2022/02/18 06:12:08;;;;;;;13.00;3.17;;;10.10;99.90;;;;;;4977435;28;20245;-86
2022/02/18 06:14:34;;;;;;;9.13;3.60;;;10.10;99.90;;;;;;4977344;28;20717;-78
2022/02/18 06:16:59;;;;;;;8.63;2.35;;;10.00;99.90;;;;;;4977336;28;20245;-78
2022/02/18 06:19:25;;;;;;;17.90;3.13;;;10.10;99.90;;;;;;4977124;28;20662;-77
2022/02/18 06:21:51;;;;;;;13.80;2.65;;;10.20;99.90;;;;;;4977239;28;20260;-78
2022/02/18 06:24:16;;;;;;;7.45;2.53;;;10.20;99.90;;;;;;4976926;28;20674;-78
2022/02/18 06:26:42;;;;;;;12.35;2.42;;;10.30;99.90;;;;;;4977023;28;20173;-78
2022/02/18 06:29:07;;;;;;;10.88;2.63;;;10.20;99.90;;;;;;4959345;28;20197;-78
2022/02/18 06:31:33;;;;;;;8.27;2.47;;;10.20;99.90;;;;;;4980784;28;20185;-78
2022/02/18 06:33:59;;;;;;;11.10;2.50;;;10.30;99.90;;;;;;4976485;28;20665;-80
2022/02/18 06:36:25;;;;;;;8.05;2.70;;;10.30;99.90;;;;;;4976681;28;20230;-77
2022/02/18 06:38:50;;;;;;;4.38;2.70;;;10.30;99.90;;;;;;4976830;28;20686;-78
2022/02/18 06:41:16;;;;;;;8.55;2.35;;;10.40;99.90;;;;;;4977633;28;20170;-77
2022/02/18 06:43:42;;;;;;;10.32;2.55;;;10.50;99.90;;;;;;4979469;28;20206;-77
2022/02/18 06:46:08;;;;;;;7.90;2.15;;;10.60;99.90;;;;;;4996587;28;20173;-82
2022/02/18 06:48:34;;;;;;;6.53;2.13;;;10.60;99.90;;;;;;4989523;28;20182;-93
2022/02/18 06:50:59;;;;;;;4.90;2.38;;;10.70;99.90;;;;;;4976914;28;20170;-77
2022/02/18 06:53:25;;;;;;;11.50;2.67;;;10.70;99.90;;;;;;4983293;28;20186;-77
2022/02/18 06:55:52;;;;;;;8.40;2.20;;;10.70;99.90;;;;;;4961884;28;20324;-88
2022/02/18 06:58:18;;;;;;;5.65;2.25;;;10.70;99.90;;;;;;4976910;28;20522;-78
2022/02/18 07:00:44;;;;;;;4.32;1.83;;;10.70;99.90;;;;;;4976347;28;20181;-77
2022/02/18 07:03:10;;;;;;;4.55;2.72;;;10.80;99.90;;;;;;4975949;28;20581;-78
2022/02/18 07:05:35;;;;;;;5.80;2.30;;;10.80;99.90;;;;;;4976455;28;20180;-78
2022/02/18 07:08:02;;;;;;;8.35;2.55;;;10.80;99.90;;;;;;4959118;28;20178;-78
2022/02/18 07:10:28;;;;;;;3.58;1.55;;;10.90;99.90;;;;;;4958885;28;20542;-78
2022/02/18 07:12:53;;;;;;;6.45;2.90;;;11.10;99.90;;;;;;4975882;28;20245;-78
2022/02/18 07:15:19;;;;;;;13.80;3.08;;;11.20;99.90;;;;;;4975757;28;20254;-79
2022/02/18 07:17:45;;;;;;;8.38;2.10;;;11.20;99.90;;;;;;4976418;28;20642;-78
2022/02/18 07:20:12;;;;;;;3.50;2.47;;;11.20;99.90;;;;;;4975853;28;20190;-78
2022/02/18 07:22:40;;;;;;;6.18;2.10;;;11.10;99.90;;;;;;4976165;28;20170;-78
2022/02/18 07:25:08;;;;;;;3.38;2.17;;;11.10;99.90;;;;;;4975729;28;20216;-90
2022/02/18 07:27:34;;;;;;;3.40;1.90;;;11.10;99.90;;;;;;4975758;28;20162;-78
2022/02/18 07:30:00;;;;;;;5.97;2.30;;;11.20;99.90;;;;;;4975601;28;20207;-85
2022/02/18 07:32:26;;;;;;;7.35;1.83;;;11.30;99.90;;;;;;4976217;28;20198;-81
2022/02/18 07:34:52;;;;;;;4.28;2.10;;;11.30;99.90;;;;;;4975849;28;20236;-79
2022/02/18 07:37:17;;;;;;;4.00;2.15;;;11.40;99.90;;;;;;4975876;28;20542;-79
2022/02/18 07:39:43;;;;;;;6.45;2.72;;;11.30;99.90;;;;;;4975827;28;20170;-78
2022/02/18 07:42:09;;;;;;;3.47;1.92;;;11.40;99.90;;;;;;4975691;28;20177;-83
2022/02/18 07:44:36;;;;;;;2.28;1.75;;;11.50;99.90;;;;;;4987420;28;20286;-78
2022/02/18 07:47:02;;;;;;;2.35;2.15;;;11.40;99.90;;;;;;4983079;28;20177;-78
2022/02/18 07:49:28;;;;;;;3.35;2.10;;;11.50;99.90;;;;;;4975628;28;20173;-78
2022/02/18 07:51:53;;;;;;;3.40;2.08;;;11.60;99.90;;;;;;4975213;28;20178;-78
2022/02/18 07:54:19;;;;;;;8.05;1.95;;;11.70;99.90;;;;;;4975590;28;20208;-79
2022/02/18 07:56:45;;;;;;;4.68;2.03;;;11.80;99.90;;;;;;4976231;28;20216;-78
2022/02/18 07:59:10;;;;;;;5.15;1.80;;;11.70;99.90;;;;;;4975716;28;20658;-78
2022/02/18 08:01:36;;;;;;;13.07;2.33;;;11.60;99.90;;;;;;4976110;28;20170;-79
2022/02/18 08:04:04;;;;;;;2.55;1.85;;;11.60;99.90;;;;;;4975538;28;20221;-80
2022/02/18 08:06:30;;;;;;;3.03;1.52;;;11.50;99.90;;;;;;4975419;28;20172;-78
2022/02/18 08:08:55;;;;;;;5.60;2.28;;;11.60;99.90;;;;;;4973564;28;20182;-87
2022/02/18 08:11:21;;;;;;;3.08;1.88;;;11.80;99.90;;;;;;4959016;28;20246;-90
2022/02/18 08:13:47;;;;;;;3.60;1.92;;;11.90;99.90;;;;;;4975113;28;20196;-78
2022/02/18 08:16:15;;;;;;;3.03;2.05;;;11.90;99.90;;;;;;4956008;28;20177;-79
2022/02/18 08:18:43;;;;;;;6.07;1.52;;;12.00;99.90;;;;;;4955794;28;20185;-80
2022/02/18 08:21:10;;;;;;;4.78;2.47;;;11.90;99.90;;;;;;4973374;28;20177;-79
2022/02/18 08:23:36;;;;;;;5.82;1.80;;;12.00;99.90;;;;;;4975086;28;20194;-79
2022/02/18 08:26:01;;;;;;;3.70;2.17;;;11.90;99.90;;;;;;4974514;28;20579;-79
2022/02/18 08:28:27;;;;;;;7.55;1.80;;;12.00;99.90;;;;;;4974564;28;20188;-79
2022/02/18 08:30:52;;;;;;;5.78;1.38;;;12.10;99.90;;;;;;4974520;28;20636;-79
2022/02/18 08:33:18;;;;;;;5.82;2.20;;;12.10;99.90;;;;;;4975286;28;20212;-79
2022/02/18 08:35:43;;;;;;;2.58;1.70;;;12.20;99.90;;;;;;4983568;28;20170;-78
2022/02/18 08:38:09;;;;;;;4.15;1.85;;;12.30;99.90;;;;;;4977184;28;20585;-79
2022/02/18 08:40:35;;;;;;;1.30;1.20;;;12.40;99.90;;;;;;4974301;28;20236;-78
2022/02/18 08:43:02;;;;;;;1.67;1.15;;;12.50;99.90;;;;;;4974235;28;20634;-78
2022/02/18 08:45:28;;;;;;;0.80;0.80;;;12.60;99.90;;;;;;4973980;28;20677;-78
2022/02/18 08:47:54;;;;;;;0.90;0.60;;;12.60;99.90;;;;;;4974319;28;20170;-80
2022/02/18 08:50:20;;;;;;;1.40;0.70;;;12.60;99.90;;;;;;4974144;28;20166;-79
2022/02/18 08:52:46;;;;;;;1.40;0.60;;;12.60;99.90;;;;;;4974983;28;20572;-77
2022/02/18 08:55:14;;;;;;;0.77;0.45;;;12.50;99.90;;;;;;4974921;28;20613;-85
2022/02/18 08:57:41;;;;;;;0.77;0.50;;;12.60;99.90;;;;;;4974476;28;20213;-78
2022/02/18 09:00:07;;;;;;;1.10;0.50;;;12.60;99.90;;;;;;4974096;28;20181;-85
2022/02/18 09:02:37;;;;;;;2.50;0.50;;;12.60;99.90;;;;;;4974493;28;20659;-88
2022/02/18 09:05:03;;;;;;;0.90;0.70;;;12.80;99.90;;;;;;4974174;28;20213;-79
2022/02/18 09:07:29;;;;;;;0.40;0.38;;;12.80;99.90;;;;;;4958136;28;20180;-77
2022/02/18 09:09:56;;;;;;;0.95;0.50;;;12.80;99.90;;;;;;4961582;28;20177;-78
2022/02/18 09:12:22;;;;;;;3.08;0.45;;;12.80;99.90;;;;;;4996282;28;20157;-81
2022/02/18 09:14:48;;;;;;;2.28;0.45;;;12.90;99.90;;;;;;4981754;28;20170;-77
2022/02/18 09:17:14;;;;;;;1.45;0.43;;;12.80;99.90;;;;;;4979986;28;20180;-78
2022/02/18 09:19:39;;;;;;;0.45;0.45;;;12.80;99.90;;;;;;4974396;28;20248;-77
2022/02/18 09:22:05;;;;;;;3.08;0.40;;;12.80;99.90;;;;;;4957350;28;20170;-78
2022/02/18 09:24:31;;;;;;;0.68;0.52;;;12.60;99.90;;;;;;4974200;28;20217;-78
2022/02/18 09:26:57;;;;;;;4.47;0.35;;;12.60;99.90;;;;;;4974396;28;20177;-77
2022/02/18 09:29:23;;;;;;;1.40;0.30;;;12.80;99.90;;;;;;4973770;28;20181;-77
2022/02/18 09:31:49;;;;;;;0.65;0.40;;;12.70;99.90;;;;;;4973584;28;20162;-87
2022/02/18 09:34:14;;;;;;;0.75;0.30;;;12.70;99.90;;;;;;4973631;28;20190;-78
2022/02/18 09:36:42;;;;;;;0.45;0.45;;;12.80;99.90;;;;;;4973855;28;20531;-77
2022/02/18 09:39:09;;;;;;;1.55;0.47;;;12.80;99.90;;;;;;4974204;28;20660;-82
2022/02/18 09:41:35;;;;;;;4.80;0.50;;;12.70;99.90;;;;;;4974186;28;20264;-78
2022/02/18 09:44:02;;;;;;;0.32;0.25;;;12.60;99.90;;;;;;4974467;28;20289;-78
2022/02/18 09:46:29;;;;;;;0.60;0.60;;;12.60;99.90;;;;;;4977347;28;20174;-77
2022/02/18 09:48:55;;;;;;;1.75;0.40;;;12.70;99.90;;;;;;4976712;28;20201;-78
2022/02/18 09:51:20;;;;;;;3.22;0.40;;;12.80;99.90;;;;;;4977094;28;20540;-78
2022/02/18 09:53:47;;;;;;;0.75;0.40;;;12.80;99.90;;;;;;4974056;28;20194;-77
2022/02/18 09:56:16;;;;;;;0.25;0.25;;;12.90;99.90;;;;;;4973926;28;20652;-78
2022/02/18 09:58:42;;;;;;;1.00;0.32;;;12.80;99.90;;;;;;4974204;28;20173;-78
2022/02/18 10:01:08;;;;;;;0.30;0.30;;;12.80;99.90;;;;;;4972915;28;20257;-78
2022/02/18 10:03:34;;;;;;;0.93;0.60;;;12.80;99.90;;;;;;4973132;28;20204;-79
2022/02/18 10:05:59;;;;;;;0.50;0.47;;;12.90;99.90;;;;;;4973424;28;20292;-78
2022/02/18 10:08:26;;;;;;;0.35;0.32;;;12.80;99.90;;;;;;4973581;28;20174;-77
2022/02/18 10:11:03;;;;;;;0.65;0.63;;;13.00;99.90;;;;;;4955454;28;20165;-77
2022/02/18 10:13:42;;;;;;;0.32;0.30;;;13.00;99.90;;;;;;4973244;28;20178;-77
2022/02/18 10:16:21;;;;;;;0.82;0.40;;;13.10;99.90;;;;;;4973413;28;20307;-77
2022/02/18 10:18:58;;;;;;;2.05;1.23;;;13.10;99.90;;;;;;4956035;28;20264;-77
2022/02/18 10:21:26;;;;;;;1.75;1.27;;;13.10;99.90;;;;;;4973332;28;20174;-78
2022/02/18 10:24:07;;;;;;;0.70;0.70;;;13.10;99.90;;;;;;4972502;28;20210;-78
2022/02/18 10:26:38;;;;;;;0.50;0.40;;;13.10;99.90;;;;;;4972910;28;20189;-78
2022/02/18 10:29:05;;;;;;;0.68;0.68;;;13.20;99.90;;;;;;4973141;28;20260;-79
2022/02/18 10:31:31;;;;;;;0.63;0.50;;;13.30;99.90;;;;;;4956138;28;20166;-79
2022/02/18 10:34:04;;;;;;;1.95;0.73;;;13.30;99.90;;;;;;4983580;28;20190;-78
2022/02/18 10:36:44;;;;;;;1.48;0.57;;;13.30;99.90;;;;;;4978812;28;20178;-78
2022/02/18 10:39:24;;;;;;;2.05;0.40;;;13.30;99.90;;;;;;4955601;28;20170;-78
2022/02/18 10:42:03;;;;;;;0.55;0.50;;;13.30;99.90;;;;;;4973312;28;20180;-78
2022/02/18 10:44:32;;;;;;;0.50;0.50;;;13.40;99.90;;;;;;4972832;28;20249;-80
2022/02/18 10:47:00;;;;;;;5.25;0.90;;;13.40;99.90;;;;;;4970413;28;20177;-80
2022/02/18 10:49:29;;;;;;;0.57;0.57;;;13.50;99.90;;;;;;4974852;28;20174;-84
2022/02/18 10:51:56;;;;;;;1.65;0.68;;;13.50;99.90;;;;;;4976852;28;20173;-87
2022/02/18 10:54:33;;;;;;;0.60;0.60;;;13.40;99.90;;;;;;4977322;28;20209;-78
2022/02/18 10:57:23;;;;;;;5.05;0.70;;;13.40;99.90;;;;;;4976232;28;20708;-78
2022/02/18 10:59:50;;;;;;;6.22;0.68;;;13.40;99.90;;;;;;4976419;28;20173;-79
2022/02/18 11:02:50;;;;;;;0.95;0.60;;;13.50;99.90;;;;;;4975866;28;20180;-78
2022/02/18 11:05:30;;;;;;;2.63;0.75;;;13.50;99.90;;;;;;4975720;28;20793;-84
2022/02/18 11:07:56;;;;;;;0.60;0.60;;;13.40;99.90;;;;;;4976899;28;20224;-87
2022/02/18 11:10:48;;;;;;;0.70;0.70;;;13.50;99.90;;;;;;4975119;28;20174;-81
2022/02/18 11:13:15;;;;;;;0.80;0.50;;;13.50;99.90;;;;;;4974549;28;20237;-90
2022/02/18 11:15:41;;;;;;;0.90;0.40;;;13.70;99.90;;;;;;4976844;28;20176;-81
2022/02/18 11:18:08;;;;;;;14.80;2.38;;;13.80;99.90;;;;;;4976773;28;20162;-86
2022/02/18 11:20:35;;;;;;;2.45;1.00;;;13.70;99.90;;;;;;4974758;28;20261;-82
2022/02/18 11:23:00;;;;;;;2.58;0.63;;;13.70;99.90;;;;;;4958954;28;20228;-80
2022/02/18 11:25:26;;;;;;;2.33;0.57;;;13.70;99.90;;;;;;4975936;28;20209;-78
2022/02/18 11:27:53;;;;;;;1.27;0.70;;;13.60;99.90;;;;;;4975812;28;20257;-79
2022/02/18 11:30:19;;;;;;;1.08;0.82;;;13.60;99.90;;;;;;4975775;28;20264;-78
2022/02/18 11:33:04;;;;;;;0.77;0.55;;;13.50;99.90;;;;;;4975689;28;20196;-79
2022/02/18 11:35:44;;;;;;;4.75;1.10;;;13.50;99.90;;;;;;4958222;28;20193;-88
2022/02/18 11:38:40;;;;;;;2.10;0.65;;;13.50;99.90;;;;;;4960484;28;20198;-78
2022/02/18 11:41:17;;;;;;;0.57;0.40;;;13.50;99.90;;;;;;4983976;28;20174;-80
2022/02/18 11:43:45;;;;;;;4.85;0.77;;;13.50;99.90;;;;;;4999823;28;20220;-78
2022/02/18 11:46:29;;;;;;;4.00;0.45;;;13.50;99.90;;;;;;4975623;28;20170;-78
2022/02/18 11:48:56;;;;;;;0.70;0.50;;;13.50;99.90;;;;;;4975736;28;20169;-76
2022/02/18 11:51:41;;;;;;;0.73;0.43;;;13.50;99.90;;;;;;4976847;28;20198;-92
2022/02/18 11:54:26;;;;;;;0.95;0.55;;;13.50;99.90;;;;;;4975892;28;20225;-83
2022/02/18 11:57:00;;;;;;;2.95;0.47;;;13.60;99.90;;;;;;4959227;28;20253;-78
2022/02/18 11:59:43;;;;;;;0.70;0.50;;;13.70;99.90;;;;;;4975354;28;20212;-78
2022/02/18 12:02:09;;;;;;;0.65;0.38;;;13.70;99.90;;;;;;4975398;28;20525;-77
2022/02/18 12:04:40;;;;;;;0.57;0.57;;;13.80;99.90;;;;;;4975649;28;20237;-77
2022/02/18 12:07:19;;;;;;;1.30;0.30;;;13.80;99.90;;;;;;4976721;28;20503;-78
2022/02/18 12:10:09;;;;;;;0.75;0.73;;;13.70;99.90;;;;;;4976141;28;20623;-77
2022/02/18 12:12:36;;;;;;;0.60;0.52;;;13.60;99.90;;;;;;4975727;28;20196;-78
2022/02/18 12:15:14;;;;;;;3.42;1.30;;;13.30;99.90;;;;;;4975254;28;20269;-78
2022/02/18 12:17:52;;;;;;;2.47;0.85;;;12.60;99.90;;;;;;4959146;28;20180;-77
2022/02/18 12:20:25;;;;;;;2.78;0.80;;;12.00;99.90;;;;;;4976071;28;20623;-78
2022/02/18 12:22:50;;;;;;;8.77;1.08;;;11.70;99.90;;;;;;4975645;28;20228;-77
2022/02/18 12:25:24;;;;;;;3.58;0.80;;;11.50;99.90;;;;;;4975545;28;20217;-78
2022/02/18 12:27:52;;;;;;;5.25;1.10;;;11.10;99.90;;;;;;4975415;28;20173;-80
2022/02/18 12:30:40;;;;;;;2.55;1.60;;;11.00;99.90;;;;;;4975409;28;20623;-80
2022/02/18 12:33:07;;;;;;;11.68;1.05;;;11.00;99.90;;;;;;4975208;28;20193;-77
2022/02/18 12:35:34;;;;;;;7.97;1.00;;;10.80;99.90;;;;;;4974018;28;20198;-80
2022/02/18 12:38:03;;;;;;;3.75;1.10;;;10.90;99.90;;;;;;4975306;28;20222;-79
2022/02/18 12:40:31;;;;;;;6.15;1.55;;;10.80;99.90;;;;;;4976425;28;20166;-79
2022/02/18 12:43:06;;;;;;;11.20;1.30;;;10.80;99.90;;;;;;4976068;28;20180;-77
2022/02/18 12:45:41;;;;;;;5.13;1.00;;;10.80;99.90;;;;;;4975286;28;20205;-78